Overseas Martinez — WPAJ — position and weather

sailwx.info

Track history (hours):
 
Tides and Currents Weather Stations Pressure Air Temp Water Temp Dewpoint Dewpoint Depression Visibility Wind Speed Wind Dir Waves Ship Positions

Overseas Martinez

Owner: ASC Leasing VIII, Inc., Philadelphia, PA. More information available from US FCC via Universal Licensing System and Coast Guard Vessel Documentation Center.

Last reported at 2017-Nov-18 10:00 UTC. Time now 2017-Nov-18 10:10 UTC.
Position N 33°60' W 121°46'.

Length 182 m; draft 11.4 m.

Type: Tanker. MMSI: 366508000.

Date/timePositionNaut miles runAvg speedWind from/ knotsBaromVisibWave heightAir tempDewpointWater temp
2017-Nov-18 10:00N 33°60' W 121°46'714.5
2017-Nov-18 09:31N 34°06' W 121°50'714.3
2017-Nov-18 09:00N 34°12' W 121°55'1014.8
2017-Nov-18 08:21N 34°20' W 122°01'614.8
2017-Nov-18 07:58N 34°25' W 122°04'714.9
2017-Nov-18 07:31N 34°31' W 122°09'714.9
2017-Nov-18 07:00N 34°37' W 122°13'814.9
2017-Nov-18 06:30N 34°44' W 122°18'3115.0
2017-Nov-18 04:26N 35°10' W 122°38'2215.9
2017-Nov-18 03:03N 35°29' W 122°52'115.4
2017-Nov-18 03:00N 35°30' W 122°52'2715.6
2017-Nov-18 01:17N 35°53' W 123°09'414.8
2017-Nov-18 01:00N 35°56' W 123°12'815.1
2017-Nov-18 00:29N 36°03' W 123°17'6414.3
2017-Nov-17 20:00N 37°00' W 123°54'41514.3 010 / 91023.6
2017-Nov-16 15:00N 42°48' W 128°48'33614.0 280 / 171005.710.8 11.5 6.7
2017-Nov-15 15:00N 47°30' W 133°06'17314.4 320 / 16997.010.8 8.0 5.8
2017-Nov-15 03:00N 49°54' W 135°30'12313.6 050 / 25992.2 6.8 5.2
2017-Nov-14 18:00N 51°36' W 137°18'8414.1 080 / 12994.410.8 40.040.0
2017-Nov-14 12:00N 52°48' W 138°30'11312.6 060 / 27996.5 5.4 7.0
2017-Nov-14 03:00N 54°06' W 140°48'20013.4 100 / 19992.910.8 4.4 4.4
2017-Nov-13 12:00N 56°18' W 145°12'   320 / 351003.9 6.0
Track history (hours):
 
Tides and Currents Weather Stations Pressure Air Temp Water Temp Dewpoint Dewpoint Depression Visibility Wind Speed Wind Dir Waves Ship Positions

Overseas Martinez

Owner: ASC Leasing VIII, Inc., Philadelphia, PA. More information available from US FCC via Universal Licensing System and Coast Guard Vessel Documentation Center.

Last reported at 2017-Nov-18 10:00 UTC. Time now 2017-Nov-18 10:10 UTC.
Position N 33°60' W 121°46'.

Length 182 m; draft 11.4 m.

Type: Tanker. MMSI: 366508000.

Date/timePositionNaut miles runAvg speedWind from/ knotsBaromVisibWave heightAir tempDewpointWater temp
2017-Nov-18 10:00N 33°60' W 121°46'714.5
2017-Nov-18 09:31N 34°06' W 121°50'714.3
2017-Nov-18 09:00N 34°12' W 121°55'1014.8
2017-Nov-18 08:21N 34°20' W 122°01'614.8
2017-Nov-18 07:58N 34°25' W 122°04'714.9
2017-Nov-18 07:31N 34°31' W 122°09'714.9
2017-Nov-18 07:00N 34°37' W 122°13'814.9
2017-Nov-18 06:30N 34°44' W 122°18'3115.0
2017-Nov-18 04:26N 35°10' W 122°38'2215.9
2017-Nov-18 03:03N 35°29' W 122°52'115.4
2017-Nov-18 03:00N 35°30' W 122°52'2715.6
2017-Nov-18 01:17N 35°53' W 123°09'414.8
2017-Nov-18 01:00N 35°56' W 123°12'815.1
2017-Nov-18 00:29N 36°03' W 123°17'6414.3
2017-Nov-17 20:00N 37°00' W 123°54'41514.3 010 / 91023.6
2017-Nov-16 15:00N 42°48' W 128°48'33614.0 280 / 171005.710.8 11.5 6.7
2017-Nov-15 15:00N 47°30' W 133°06'17314.4 320 / 16997.010.8 8.0 5.8
2017-Nov-15 03:00N 49°54' W 135°30'12313.6 050 / 25992.2 6.8 5.2
2017-Nov-14 18:00N 51°36' W 137°18'8414.1 080 / 12994.410.8 40.040.0
2017-Nov-14 12:00N 52°48' W 138°30'11312.6 060 / 27996.5 5.4 7.0
2017-Nov-14 03:00N 54°06' W 140°48'20013.4 100 / 19992.910.8 4.4 4.4
2017-Nov-13 12:00N 56°18' W 145°12'   320 / 351003.9 6.0

Dump ship's entire track history